Time;durP1;ratioP1;P1;durP2;ratioP2;P2;SDS_P1;SDS_P2;PMS_P1;PMS_P2;Temp;Humidity;BMP_temperature;BMP_pressure;BME280_temperature;BME280_humidity;BME280_pressure;Samples;Min_cycle;Max_cycle;Signal;HPM_P1;HPM_P2
2021/04/09 00:00:27;;;;;;;2.67;2.10;;;31.30;79.60;;;;;;5089659;28;20395;-77
2021/04/09 00:02:56;;;;;;;2.95;1.73;;;31.10;76.70;;;;;;5089173;28;20777;-77
2021/04/09 00:05:24;;;;;;;2.35;1.77;;;31.10;79.40;;;;;;5089683;28;20371;-77
2021/04/09 00:07:51;;;;;;;2.10;1.80;;;31.30;80.90;;;;;;5089403;28;20396;-78
2021/04/09 00:10:21;;;;;;;3.97;1.90;;;31.90;77.20;;;;;;5089261;28;20918;-78
2021/04/09 00:12:51;;;;;;;5.03;2.00;;;31.50;73.70;;;;;;5089461;28;20833;-77
2021/04/09 00:15:19;;;;;;;4.33;2.20;;;31.10;70.80;;;;;;5088567;28;20803;-78
2021/04/09 00:17:46;;;;;;;3.72;2.03;;;30.80;70.50;;;;;;5088866;28;20387;-78
2021/04/09 00:20:17;;;;;;;3.92;2.33;;;30.60;73.50;;;;;;5089327;28;20442;-77
2021/04/09 00:22:45;;;;;;;3.95;1.88;;;30.50;76.70;;;;;;5088449;28;20376;-78
2021/04/09 00:25:13;;;;;;;7.15;1.98;;;30.00;76.60;;;;;;5089397;28;20380;-77
2021/04/09 00:27:40;;;;;;;2.58;1.92;;;29.00;74.80;;;;;;5088923;28;20449;-78
2021/04/09 00:30:10;;;;;;;2.58;1.60;;;28.20;81.10;;;;;;5087569;28;20426;-77
2021/04/09 00:32:37;;;;;;;2.35;1.63;;;27.90;79.90;;;;;;5088394;28;20369;-77
2021/04/09 00:35:05;;;;;;;2.60;2.05;;;27.40;81.10;;;;;;5087137;28;20388;-78
2021/04/09 00:37:32;;;;;;;3.20;1.83;;;26.90;83.60;;;;;;5089086;28;20379;-78
2021/04/09 00:39:59;;;;;;;2.10;1.83;;;26.30;86.70;;;;;;5088824;28;20417;-78
2021/04/09 00:42:26;;;;;;;2.10;1.90;;;25.80;88.00;;;;;;5088073;28;20453;-77
2021/04/09 00:44:56;;;;;;;5.00;1.90;;;25.50;90.20;;;;;;5088544;28;20372;-77
2021/04/09 00:47:24;;;;;;;3.65;2.03;;;25.20;91.80;;;;;;5088036;28;20456;-78
2021/04/09 00:49:54;;;;;;;2.40;1.67;;;25.10;93.00;;;;;;5088075;28;21354;-78
2021/04/09 00:52:22;;;;;;;3.00;1.77;;;25.20;92.80;;;;;;5088919;28;20381;-78
2021/04/09 00:54:50;;;;;;;4.32;1.98;;;25.10;93.20;;;;;;5088805;28;20827;-78
2021/04/09 00:57:18;;;;;;;3.60;2.05;;;24.90;93.90;;;;;;5088682;28;20380;-77
2021/04/09 00:59:45;;;;;;;3.63;2.03;;;24.70;96.40;;;;;;5088257;28;20464;-77
2021/04/09 01:02:12;;;;;;;2.80;2.03;;;24.40;94.90;;;;;;5088713;28;20368;-77
2021/04/09 01:04:40;;;;;;;4.00;1.83;;;24.30;95.70;;;;;;5088686;28;20400;-77
2021/04/09 01:07:07;;;;;;;3.67;2.05;;;24.10;96.00;;;;;;5088710;28;20756;-78
2021/04/09 01:09:37;;;;;;;4.82;2.30;;;24.00;96.30;;;;;;5087681;28;20388;-78
2021/04/09 01:12:07;;;;;;;3.40;2.03;;;24.10;96.60;;;;;;5088061;28;20438;-78
2021/04/09 01:14:35;;;;;;;4.13;2.20;;;24.10;98.60;;;;;;5086264;28;20367;-78
2021/04/09 01:17:07;;;;;;;3.30;2.03;;;24.10;98.00;;;;;;5067263;28;20867;-78
2021/04/09 01:19:43;;;;;;;3.03;2.13;;;24.10;99.60;;;;;;5068509;28;20366;-78
2021/04/09 01:22:12;;;;;;;4.80;2.33;;;24.10;99.90;;;;;;5072606;28;20954;-77
2021/04/09 01:25:11;;;;;;;3.50;2.13;;;24.10;99.90;;;;;;5087720;28;20895;-77
2021/04/09 01:27:50;;;;;;;3.53;2.00;;;24.20;99.90;;;;;;5065146;28;20387;-78
2021/04/09 01:30:58;;;;;;;2.78;2.00;;;24.30;99.80;;;;;;5088476;28;20439;-77
2021/04/09 01:33:37;;;;;;;4.20;2.10;;;24.40;99.90;;;;;;5067856;28;20771;-78
2021/04/09 01:36:19;;;;;;;3.30;2.00;;;24.40;99.90;;;;;;5081041;28;20385;-77
2021/04/09 01:38:53;;;;;;;3.50;2.40;;;24.20;99.90;;;;;;5087814;28;20413;-78
2021/04/09 01:41:21;;;;;;;4.45;2.38;;;24.20;99.90;;;;;;5085542;28;20821;-78
2021/04/09 01:43:49;;;;;;;3.30;1.88;;;24.10;99.90;;;;;;5087728;28;20472;-77
2021/04/09 01:46:16;;;;;;;3.72;2.10;;;23.90;99.90;;;;;;5079992;28;20376;-78
2021/04/09 01:48:46;;;;;;;3.08;2.30;;;23.80;99.90;;;;;;5090926;28;20400;-77
2021/04/09 01:51:15;;;;;;;3.40;2.00;;;23.60;99.90;;;;;;5088900;28;20906;-77
2021/04/09 01:53:45;;;;;;;3.78;2.20;;;23.50;99.90;;;;;;5091736;28;20453;-79
2021/04/09 01:56:14;;;;;;;3.47;1.90;;;23.30;99.90;;;;;;5090579;28;20829;-78
2021/04/09 01:58:42;;;;;;;3.72;2.03;;;23.20;99.90;;;;;;5090115;28;20384;-78
2021/04/09 02:01:11;;;;;;;3.92;1.92;;;23.00;99.90;;;;;;5091538;28;20391;-79
2021/04/09 02:03:41;;;;;;;4.97;1.85;;;22.90;99.90;;;;;;5091912;28;20386;-78
2021/04/09 02:06:09;;;;;;;2.72;1.80;;;22.80;99.90;;;;;;5092037;28;20388;-78
2021/04/09 02:08:37;;;;;;;4.22;1.83;;;22.80;99.90;;;;;;5091793;28;20404;-78
2021/04/09 02:11:04;;;;;;;4.07;2.42;;;22.80;99.90;;;;;;5091992;28;20396;-78
2021/04/09 02:13:34;;;;;;;3.45;1.63;;;22.90;99.90;;;;;;5091698;28;20381;-79
2021/04/09 02:16:02;;;;;;;4.88;2.20;;;22.90;99.90;;;;;;5092115;28;20481;-78
2021/04/09 02:18:29;;;;;;;2.60;2.00;;;23.00;99.90;;;;;;5091946;28;20368;-78
2021/04/09 02:20:58;;;;;;;3.33;1.70;;;23.00;99.90;;;;;;5091582;28;20384;-78
2021/04/09 02:23:25;;;;;;;5.00;1.98;;;23.00;99.90;;;;;;5090980;28;20467;-78
2021/04/09 02:25:59;;;;;;;4.45;2.10;;;23.00;99.90;;;;;;5091251;28;20388;-78
2021/04/09 02:28:27;;;;;;;3.17;1.90;;;23.00;99.90;;;;;;5090957;28;20368;-78
2021/04/09 02:31:11;;;;;;;4.00;1.67;;;23.00;99.90;;;;;;5090417;28;20508;-78
2021/04/09 02:33:41;;;;;;;2.85;1.80;;;23.10;99.90;;;;;;5090932;28;20516;-78
2021/04/09 02:36:18;;;;;;;4.93;1.92;;;23.00;99.90;;;;;;5091522;28;20707;-78
2021/04/09 02:39:10;;;;;;;7.72;2.00;;;23.00;99.90;;;;;;5091473;28;20803;-78
2021/04/09 02:41:40;;;;;;;5.00;2.13;;;23.10;99.90;;;;;;5089441;28;20387;-78
2021/04/09 02:44:08;;;;;;;4.47;1.85;;;23.20;99.90;;;;;;5090793;28;20445;-79
2021/04/09 02:46:41;;;;;;;8.98;2.50;;;23.20;99.90;;;;;;5090916;28;20380;-78
2021/04/09 02:49:14;;;;;;;5.57;2.00;;;23.30;99.90;;;;;;5090415;28;20879;-78
2021/04/09 02:51:44;;;;;;;10.15;2.25;;;23.40;99.90;;;;;;5109154;28;20393;-78
2021/04/09 02:54:16;;;;;;;5.82;2.30;;;23.30;99.90;;;;;;5109583;28;20457;-78
2021/04/09 02:56:43;;;;;;;6.78;2.30;;;23.20;99.90;;;;;;5099141;28;20472;-78
2021/04/09 02:59:13;;;;;;;3.25;2.22;;;23.20;99.90;;;;;;5085800;28;20806;-78
2021/04/09 03:01:43;;;;;;;6.00;2.13;;;23.10;99.90;;;;;;5093884;28;20439;-78
2021/04/09 03:04:19;;;;;;;7.35;2.20;;;23.00;99.90;;;;;;5089754;28;20789;-78
2021/04/09 03:07:27;;;;;;;3.50;1.77;;;23.00;99.90;;;;;;5091040;28;20376;-79
2021/04/09 03:09:53;;;;;;;3.70;1.90;;;22.90;99.90;;;;;;5088528;28;20481;-79
2021/04/09 03:12:21;;;;;;;3.90;1.80;;;22.80;99.90;;;;;;5089359;28;20715;-81
2021/04/09 03:14:51;;;;;;;2.45;1.70;;;22.80;99.90;;;;;;5090779;28;20866;-78
2021/04/09 03:17:47;;;;;;;3.67;2.05;;;22.70;99.90;;;;;;5088521;28;20463;-79
2021/04/09 03:20:15;;;;;;;2.65;1.90;;;22.70;99.90;;;;;;5083826;28;20491;-78
2021/04/09 03:22:42;;;;;;;6.35;2.03;;;22.70;99.90;;;;;;5090057;28;20423;-79
2021/04/09 03:25:09;;;;;;;3.10;2.20;;;22.70;99.90;;;;;;5071781;28;20382;-80
2021/04/09 03:27:36;;;;;;;3.95;2.35;;;22.80;99.90;;;;;;5089555;28;20416;-77
2021/04/09 03:30:04;;;;;;;3.97;2.58;;;22.90;99.90;;;;;;5089752;28;20392;-78
2021/04/09 03:32:30;;;;;;;3.92;2.47;;;23.10;99.90;;;;;;5088336;28;20388;-79
2021/04/09 03:34:57;;;;;;;3.97;2.60;;;23.10;99.90;;;;;;5089636;28;20763;-79
2021/04/09 03:37:24;;;;;;;5.68;3.00;;;23.20;99.90;;;;;;5088824;28;20389;-79
2021/04/09 03:39:51;;;;;;;6.07;2.88;;;23.20;99.90;;;;;;5089359;28;20371;-78
2021/04/09 03:42:18;;;;;;;4.07;2.83;;;23.20;99.90;;;;;;5089239;28;20396;-79
2021/04/09 03:44:45;;;;;;;3.35;2.17;;;23.30;99.90;;;;;;5088207;28;20391;-79
2021/04/09 03:47:12;;;;;;;5.55;2.58;;;23.30;99.90;;;;;;5089107;28;20475;-79
2021/04/09 03:49:39;;;;;;;2.85;2.10;;;23.40;99.90;;;;;;5089089;28;20404;-78
2021/04/09 03:52:07;;;;;;;3.88;2.00;;;23.60;99.90;;;;;;5090517;28;20447;-78
2021/04/09 03:54:34;;;;;;;3.80;1.95;;;23.70;99.90;;;;;;5089807;28;20841;-79
2021/04/09 03:57:00;;;;;;;3.22;2.05;;;23.90;99.90;;;;;;5089467;28;20381;-79
2021/04/09 03:59:27;;;;;;;4.13;2.15;;;24.00;99.90;;;;;;5094851;28;20420;-79
2021/04/09 04:01:55;;;;;;;2.30;2.00;;;24.10;99.90;;;;;;5088999;28;20389;-78
2021/04/09 04:04:21;;;;;;;3.50;1.90;;;24.20;99.90;;;;;;5090216;28;20387;-78
2021/04/09 04:06:48;;;;;;;2.53;1.80;;;24.30;99.90;;;;;;5087928;28;20383;-78
2021/04/09 04:09:15;;;;;;;3.22;1.98;;;24.30;99.90;;;;;;5087503;28;20403;-78
2021/04/09 04:11:43;;;;;;;3.35;1.90;;;24.30;99.90;;;;;;5089511;28;20551;-78
2021/04/09 04:14:09;;;;;;;2.92;1.70;;;24.30;99.90;;;;;;5089278;28;20919;-78
2021/04/09 04:16:36;;;;;;;5.88;1.95;;;24.40;99.90;;;;;;5089201;28;20464;-78
2021/04/09 04:19:04;;;;;;;3.85;1.77;;;24.30;99.90;;;;;;5088399;28;20388;-78
2021/04/09 04:21:31;;;;;;;3.92;1.77;;;24.40;99.90;;;;;;5086716;28;20392;-79
2021/04/09 04:23:58;;;;;;;2.70;1.75;;;24.40;99.90;;;;;;5089121;28;20379;-78
2021/04/09 04:26:25;;;;;;;3.38;1.52;;;24.40;99.90;;;;;;5088426;28;20393;-79
2021/04/09 04:28:52;;;;;;;6.85;1.88;;;24.40;99.90;;;;;;5089010;28;20473;-79
2021/04/09 04:31:19;;;;;;;2.50;1.63;;;24.40;99.90;;;;;;5088564;28;20376;-79
2021/04/09 04:33:46;;;;;;;3.85;1.92;;;24.40;99.90;;;;;;5088277;28;20477;-79
2021/04/09 04:36:13;;;;;;;2.03;1.60;;;24.40;99.90;;;;;;5088963;28;20392;-78
2021/04/09 04:38:40;;;;;;;6.07;1.60;;;24.40;99.90;;;;;;5089011;28;20440;-79
2021/04/09 04:41:07;;;;;;;4.38;1.70;;;24.40;99.90;;;;;;5088359;28;20378;-78
2021/04/09 04:43:34;;;;;;;2.92;1.58;;;24.50;99.90;;;;;;5088494;28;20754;-79
2021/04/09 04:46:01;;;;;;;3.83;1.80;;;24.50;99.90;;;;;;5088757;28;20762;-78
2021/04/09 04:48:28;;;;;;;4.03;1.73;;;24.60;99.90;;;;;;5088024;28;20392;-78
2021/04/09 04:50:55;;;;;;;2.63;1.65;;;24.60;99.90;;;;;;5089583;28;20408;-79
2021/04/09 04:53:22;;;;;;;3.20;1.80;;;24.60;99.90;;;;;;5088616;28;20384;-79
2021/04/09 04:55:49;;;;;;;4.75;1.80;;;24.60;99.90;;;;;;5088722;28;20390;-79
2021/04/09 04:58:16;;;;;;;2.25;1.42;;;24.60;99.90;;;;;;5088708;28;20442;-80
2021/04/09 05:00:43;;;;;;;3.95;1.80;;;24.60;99.90;;;;;;5087449;28;20399;-80
2021/04/09 05:03:10;;;;;;;4.03;1.75;;;24.70;99.90;;;;;;5088394;28;20373;-79
2021/04/09 05:05:37;;;;;;;3.65;1.63;;;24.70;99.90;;;;;;5086257;28;20379;-79
2021/04/09 05:08:04;;;;;;;1.92;1.63;;;24.60;99.90;;;;;;5087113;28;20399;-79
2021/04/09 05:10:32;;;;;;;3.15;1.70;;;24.70;99.90;;;;;;5084792;28;20408;-80
2021/04/09 05:12:58;;;;;;;3.13;1.65;;;24.70;99.90;;;;;;5084238;28;20383;-79
2021/04/09 05:15:25;;;;;;;4.72;1.50;;;24.70;99.90;;;;;;5084057;28;20372;-80
2021/04/09 05:17:52;;;;;;;2.13;1.67;;;24.80;99.30;;;;;;5085910;28;20376;-79
2021/04/09 05:20:19;;;;;;;2.00;1.50;;;24.90;98.60;;;;;;5088168;28;20391;-79
2021/04/09 05:22:46;;;;;;;7.28;1.85;;;24.90;98.50;;;;;;5089323;28;20368;-79
2021/04/09 05:25:13;;;;;;;3.15;1.80;;;24.90;98.50;;;;;;5088096;28;20962;-79
2021/04/09 05:27:40;;;;;;;3.80;1.70;;;24.80;98.50;;;;;;5087251;28;20383;-78
2021/04/09 05:30:08;;;;;;;4.68;1.73;;;24.80;99.00;;;;;;5088435;28;20479;-79
2021/04/09 05:32:35;;;;;;;2.78;1.60;;;24.80;99.10;;;;;;5087670;28;20536;-79
2021/04/09 05:35:02;;;;;;;5.50;1.98;;;24.80;98.80;;;;;;5087850;28;20384;-79
2021/04/09 05:37:29;;;;;;;1.83;1.40;;;24.80;99.10;;;;;;5087998;28;20900;-79
2021/04/09 05:39:56;;;;;;;2.88;1.80;;;24.80;99.40;;;;;;5087603;28;20427;-79
2021/04/09 05:42:23;;;;;;;3.45;1.80;;;24.80;99.20;;;;;;5092268;28;20603;-79
2021/04/09 05:44:50;;;;;;;4.70;1.80;;;24.90;98.60;;;;;;5090112;28;20923;-79
2021/04/09 05:47:17;;;;;;;4.20;2.13;;;24.80;98.90;;;;;;5088213;28;21257;-79
2021/04/09 05:49:44;;;;;;;3.88;1.88;;;24.80;99.20;;;;;;5087682;28;20932;-79
2021/04/09 05:52:11;;;;;;;4.53;1.85;;;24.90;99.00;;;;;;5088603;28;20477;-78
2021/04/09 05:54:40;;;;;;;2.75;1.70;;;24.80;99.70;;;;;;5086922;28;20894;-79
2021/04/09 05:57:07;;;;;;;4.07;1.67;;;24.80;99.10;;;;;;5085246;28;20739;-78
2021/04/09 05:59:34;;;;;;;2.88;1.80;;;24.80;99.60;;;;;;5087988;28;20392;-78
2021/04/09 06:02:01;;;;;;;3.42;2.08;;;24.70;99.50;;;;;;5091967;28;20376;-80
2021/04/09 06:04:28;;;;;;;4.90;2.03;;;24.80;99.40;;;;;;5092240;28;20395;-79
2021/04/09 06:06:55;;;;;;;2.92;1.80;;;24.80;99.20;;;;;;5092229;28;20376;-79
2021/04/09 06:09:22;;;;;;;5.47;1.80;;;24.80;98.20;;;;;;5092045;28;20871;-79
2021/04/09 06:11:49;;;;;;;2.38;1.60;;;24.80;96.90;;;;;;5089382;28;20433;-79
2021/04/09 06:14:18;;;;;;;4.32;1.83;;;24.80;97.50;;;;;;5087501;28;20384;-78
2021/04/09 06:16:45;;;;;;;3.00;1.40;;;24.80;97.40;;;;;;5087253;28;20431;-79
2021/04/09 06:19:12;;;;;;;2.50;1.42;;;24.70;97.70;;;;;;5087393;28;20734;-79
2021/04/09 06:21:40;;;;;;;3.90;1.80;;;24.70;97.70;;;;;;5087990;28;20388;-78
2021/04/09 06:24:08;;;;;;;2.88;1.67;;;24.70;98.30;;;;;;5087483;28;20380;-79
2021/04/09 06:26:35;;;;;;;3.67;1.75;;;24.70;98.60;;;;;;5087049;28;20506;-79
2021/04/09 06:29:02;;;;;;;5.15;1.80;;;24.70;98.40;;;;;;5087025;28;20383;-79
2021/04/09 06:31:29;;;;;;;3.10;1.67;;;24.60;98.50;;;;;;5088489;28;20410;-79
2021/04/09 06:33:56;;;;;;;3.15;1.60;;;24.60;98.80;;;;;;5089544;28;20742;-79
2021/04/09 06:36:24;;;;;;;2.53;1.60;;;24.60;99.60;;;;;;5091458;28;20412;-79
2021/04/09 06:38:51;;;;;;;2.08;1.85;;;24.40;99.50;;;;;;5091116;28;20416;-78
2021/04/09 06:41:18;;;;;;;5.65;1.77;;;24.40;99.50;;;;;;5092352;28;20464;-78
2021/04/09 06:43:46;;;;;;;3.17;1.52;;;24.30;99.60;;;;;;5112753;28;20374;-79
2021/04/09 06:46:14;;;;;;;3.70;1.60;;;24.30;99.20;;;;;;5097711;28;20441;-79
2021/04/09 06:48:42;;;;;;;3.50;1.77;;;24.30;99.90;;;;;;5091142;28;20903;-79
2021/04/09 06:51:13;;;;;;;5.15;1.75;;;24.10;99.90;;;;;;5091438;28;20408;-78
2021/04/09 06:53:48;;;;;;;2.50;1.63;;;24.10;99.80;;;;;;5091056;28;20364;-78
2021/04/09 06:56:20;;;;;;;3.50;1.48;;;24.00;99.90;;;;;;5091499;28;20388;-79
2021/04/09 06:58:48;;;;;;;2.88;1.75;;;24.00;99.90;;;;;;5093054;28;20368;-79
2021/04/09 07:01:18;;;;;;;3.40;1.67;;;23.90;99.90;;;;;;5090654;28;20388;-79
2021/04/09 07:03:45;;;;;;;3.35;1.88;;;23.80;99.90;;;;;;5091202;28;20369;-78
2021/04/09 07:06:12;;;;;;;3.58;1.70;;;23.70;99.90;;;;;;5080346;28;20425;-79
2021/04/09 07:08:42;;;;;;;3.15;1.70;;;23.60;99.90;;;;;;5086306;28;20851;-78
2021/04/09 07:11:10;;;;;;;4.55;1.92;;;23.50;99.90;;;;;;5090707;28;20392;-78
2021/04/09 07:13:48;;;;;;;2.45;1.40;;;23.40;99.90;;;;;;5089370;28;20719;-79
2021/04/09 07:16:15;;;;;;;6.93;1.85;;;23.40;99.90;;;;;;5098465;28;20914;-78
2021/04/09 07:19:00;;;;;;;5.80;1.75;;;23.30;99.90;;;;;;5090614;28;20456;-78
2021/04/09 07:21:29;;;;;;;3.20;1.63;;;23.20;99.90;;;;;;5090977;28;20474;-79
2021/04/09 07:24:14;;;;;;;2.70;1.73;;;23.10;99.90;;;;;;5090511;28;20406;-78
2021/04/09 07:26:51;;;;;;;7.33;1.80;;;23.00;99.90;;;;;;5088877;28;20565;-78
2021/04/09 07:29:35;;;;;;;4.73;1.70;;;23.00;99.90;;;;;;5090454;28;20399;-79
2021/04/09 07:32:02;;;;;;;4.53;1.58;;;23.00;99.90;;;;;;5090075;28;20386;-78
2021/04/09 07:34:53;;;;;;;4.03;1.80;;;22.90;99.90;;;;;;5090500;28;20388;-78
2021/04/09 07:37:24;;;;;;;5.67;1.83;;;22.80;99.90;;;;;;5089909;28;20451;-78
2021/04/09 07:39:56;;;;;;;4.27;1.80;;;22.70;99.90;;;;;;5089842;28;20397;-78
2021/04/09 07:42:30;;;;;;;5.43;1.63;;;22.60;99.90;;;;;;5086593;28;20392;-79
2021/04/09 07:44:59;;;;;;;4.33;1.90;;;22.50;99.90;;;;;;5089805;28;20381;-78
2021/04/09 07:47:27;;;;;;;5.40;2.10;;;22.40;99.90;;;;;;5089720;28;20527;-78
2021/04/09 07:50:06;;;;;;;2.20;2.00;;;22.30;99.90;;;;;;5088771;28;20770;-78
2021/04/09 07:52:45;;;;;;;2.22;1.70;;;22.20;99.90;;;;;;5089615;28;20380;-78
2021/04/09 07:55:21;;;;;;;5.78;2.00;;;22.10;99.90;;;;;;5089954;28;20373;-78
2021/04/09 07:57:50;;;;;;;3.40;2.03;;;22.00;99.90;;;;;;5089655;28;20859;-78
2021/04/09 08:00:27;;;;;;;4.97;2.30;;;21.90;99.90;;;;;;5089501;28;20480;-78
2021/04/09 08:02:56;;;;;;;11.32;2.85;;;21.90;99.90;;;;;;5089433;28;20732;-78
2021/04/09 08:05:27;;;;;;;17.08;4.72;;;22.10;99.90;;;;;;5086220;28;20724;-78
2021/04/09 08:07:54;;;;;;;20.13;4.85;;;22.20;99.90;;;;;;5089238;28;20945;-78
2021/04/09 08:10:29;;;;;;;27.88;5.57;;;22.10;99.90;;;;;;5089475;28;20503;-78
2021/04/09 08:12:57;;;;;;;26.90;6.05;;;21.90;99.90;;;;;;5089746;28;20360;-77
2021/04/09 08:15:30;;;;;;;29.63;6.22;;;21.70;99.90;;;;;;5089550;28;20411;-78
2021/04/09 08:18:08;;;;;;;28.47;6.80;;;21.50;99.90;;;;;;5089289;28;20848;-77
2021/04/09 08:20:41;;;;;;;33.33;6.50;;;21.30;99.90;;;;;;5086825;28;20369;-78
2021/04/09 08:23:10;;;;;;;27.80;6.30;;;21.20;99.90;;;;;;5081303;28;20400;-78
2021/04/09 08:25:39;;;;;;;27.98;6.35;;;21.20;99.90;;;;;;5082162;28;20476;-78
2021/04/09 08:28:10;;;;;;;27.40;6.13;;;21.00;99.90;;;;;;5089097;28;20379;-78
2021/04/09 08:30:37;;;;;;;32.67;6.67;;;20.90;99.90;;;;;;5089319;28;21000;-78
2021/04/09 08:33:07;;;;;;;28.45;5.70;;;20.80;99.90;;;;;;5089157;28;20465;-78
2021/04/09 08:35:34;;;;;;;30.80;6.55;;;20.80;99.90;;;;;;5087592;28;20400;-77
2021/04/09 08:38:02;;;;;;;29.30;6.40;;;20.70;99.90;;;;;;5088976;28;20399;-77
2021/04/09 08:40:29;;;;;;;31.17;6.63;;;20.70;99.90;;;;;;5088437;28;20445;-78
2021/04/09 08:42:56;;;;;;;34.03;6.10;;;20.70;99.90;;;;;;5089429;28;20452;-78
2021/04/09 08:45:23;;;;;;;28.58;7.00;;;20.60;99.90;;;;;;5088909;28;20472;-77
2021/04/09 08:47:57;;;;;;;29.92;6.97;;;20.60;99.90;;;;;;5079381;28;20394;-77
2021/04/09 08:50:24;;;;;;;30.02;6.00;;;20.50;99.90;;;;;;5068666;28;20402;-78
2021/04/09 08:52:51;;;;;;;27.63;6.32;;;20.40;99.90;;;;;;5083875;28;20448;-77
2021/04/09 08:55:18;;;;;;;33.28;6.95;;;20.40;99.90;;;;;;5088527;28;20383;-77
2021/04/09 08:57:46;;;;;;;27.92;6.28;;;20.40;99.90;;;;;;5075140;28;20384;-78
2021/04/09 09:00:24;;;;;;;26.35;7.55;;;20.40;99.90;;;;;;5068798;28;20410;-77
2021/04/09 09:02:53;;;;;;;26.80;6.32;;;20.40;99.90;;;;;;5067270;28;20876;-78
2021/04/09 09:05:33;;;;;;;29.38;7.50;;;20.30;99.90;;;;;;5072055;28;20437;-78
2021/04/09 09:08:01;;;;;;;29.10;6.22;;;20.30;99.90;;;;;;5097861;28;20384;-79
2021/04/09 09:10:31;;;;;;;29.95;6.15;;;20.30;99.90;;;;;;5087404;28;21083;-80
2021/04/09 09:13:04;;;;;;;32.17;6.90;;;20.30;99.90;;;;;;5075386;28;20455;-79
2021/04/09 09:15:44;;;;;;;30.75;6.43;;;20.30;99.90;;;;;;5085084;28;21004;-80
2021/04/09 09:18:31;;;;;;;39.70;7.13;;;20.20;99.90;;;;;;5076335;28;20461;-80
2021/04/09 09:21:11;;;;;;;33.30;6.30;;;20.20;99.90;;;;;;5077163;28;20390;-80
2021/04/09 09:23:45;;;;;;;32.85;7.30;;;20.20;99.90;;;;;;5084433;28;20471;-79
2021/04/09 09:26:20;;;;;;;27.58;6.25;;;20.20;99.90;;;;;;5088453;28;20793;-80
2021/04/09 09:29:07;;;;;;;28.38;6.43;;;20.20;99.90;;;;;;5081627;28;20380;-80
2021/04/09 09:31:35;;;;;;;35.33;7.57;;;20.20;99.90;;;;;;5077199;28;20384;-80
2021/04/09 09:34:39;;;;;;;29.05;6.82;;;20.10;99.90;;;;;;5087510;28;20467;-79
2021/04/09 09:37:27;;;;;;;28.73;6.05;;;20.10;99.90;;;;;;5026060;28;20386;-80
2021/04/09 09:39:57;;;;;;;30.17;6.40;;;20.10;99.90;;;;;;5086458;28;20716;-80
2021/04/09 09:42:27;;;;;;;29.65;6.38;;;20.00;99.90;;;;;;5088407;28;20674;-80
2021/04/09 09:45:03;;;;;;;30.95;6.40;;;20.00;99.90;;;;;;5098218;28;20521;-82
2021/04/09 09:47:32;;;;;;;25.58;5.72;;;20.00;99.90;;;;;;5084304;28;20974;-80
2021/04/09 09:50:07;;;;;;;25.85;6.18;;;20.00;99.90;;;;;;5078647;28;20564;-80
2021/04/09 09:52:48;;;;;;;35.42;6.47;;;20.00;99.90;;;;;;5074451;28;20392;-81
2021/04/09 09:55:18;;;;;;;30.57;5.90;;;20.00;99.90;;;;;;5081039;28;20419;-80
2021/04/09 09:57:47;;;;;;;32.13;5.93;;;19.90;99.90;;;;;;5082747;28;20392;-80
2021/04/09 10:00:23;;;;;;;33.35;6.43;;;19.90;99.90;;;;;;5078333;28;20483;-80
2021/04/09 10:02:50;;;;;;;32.10;6.40;;;19.80;99.90;;;;;;5084682;28;20506;-81
2021/04/09 10:05:18;;;;;;;28.95;5.97;;;19.80;99.90;;;;;;5086608;28;20384;-80
2021/04/09 10:07:46;;;;;;;34.45;6.65;;;19.80;99.90;;;;;;5088075;28;20384;-80
2021/04/09 10:10:13;;;;;;;32.03;6.00;;;19.70;99.90;;;;;;5088804;28;20411;-80
2021/04/09 10:12:40;;;;;;;28.40;5.90;;;19.60;99.90;;;;;;5089258;28;20487;-80
2021/04/09 10:15:07;;;;;;;28.43;5.43;;;19.60;99.90;;;;;;5075721;28;20859;-80
2021/04/09 10:17:34;;;;;;;28.58;6.13;;;19.60;99.90;;;;;;5082613;28;20468;-80
2021/04/09 10:20:04;;;;;;;30.75;6.38;;;19.60;99.90;;;;;;5084397;28;20397;-80
2021/04/09 10:22:32;;;;;;;28.08;5.22;;;19.60;99.90;;;;;;5082928;28;20388;-81
2021/04/09 10:24:59;;;;;;;28.33;5.45;;;19.60;99.90;;;;;;5088972;28;20388;-80
2021/04/09 10:27:26;;;;;;;35.10;5.78;;;19.60;99.90;;;;;;5086572;28;20380;-80
2021/04/09 10:29:53;;;;;;;28.80;5.82;;;19.60;99.90;;;;;;5086813;28;20404;-80
2021/04/09 10:32:21;;;;;;;30.25;6.00;;;19.60;99.90;;;;;;5087481;28;20429;-80
2021/04/09 10:34:51;;;;;;;29.65;6.22;;;19.50;99.90;;;;;;5088675;28;20425;-79
2021/04/09 10:37:25;;;;;;;28.40;5.45;;;19.50;99.90;;;;;;5088338;28;20388;-80
2021/04/09 10:39:53;;;;;;;31.53;5.70;;;19.50;99.90;;;;;;5088744;28;20364;-80
2021/04/09 10:42:20;;;;;;;37.85;7.13;;;19.50;99.90;;;;;;5087605;28;20388;-80
2021/04/09 10:44:47;;;;;;;31.50;5.82;;;19.40;99.90;;;;;;5087375;28;20385;-80
2021/04/09 10:47:14;;;;;;;27.25;5.47;;;19.50;99.90;;;;;;5083071;28;20388;-80
2021/04/09 10:49:43;;;;;;;32.92;5.95;;;19.60;99.90;;;;;;5086146;28;20461;-80
2021/04/09 10:52:14;;;;;;;27.67;5.75;;;19.50;99.90;;;;;;5086911;28;20465;-80
2021/04/09 10:54:47;;;;;;;32.15;6.20;;;19.40;99.90;;;;;;5076002;28;20401;-81
2021/04/09 10:57:18;;;;;;;30.87;5.73;;;19.40;99.90;;;;;;5075554;28;20408;-81
2021/04/09 10:59:49;;;;;;;28.90;5.95;;;19.40;99.90;;;;;;5087070;28;21023;-80
2021/04/09 11:02:24;;;;;;;32.60;6.07;;;19.40;99.90;;;;;;5086593;28;20396;-79
2021/04/09 11:04:56;;;;;;;29.15;5.53;;;19.30;99.90;;;;;;5087607;28;20380;-79
2021/04/09 11:07:44;;;;;;;28.23;5.38;;;19.30;99.90;;;;;;5084016;28;20396;-80
2021/04/09 11:10:32;;;;;;;30.15;6.53;;;19.20;99.90;;;;;;5085002;28;20501;-80
2021/04/09 11:13:00;;;;;;;24.25;5.47;;;19.10;99.90;;;;;;5069456;28;21057;-79
2021/04/09 11:15:37;;;;;;;28.88;6.22;;;19.10;99.90;;;;;;5084933;28;20381;-80
2021/04/09 11:18:05;;;;;;;27.87;5.67;;;19.00;99.90;;;;;;5085797;28;20485;-80
2021/04/09 11:20:35;;;;;;;27.47;5.40;;;18.90;99.90;;;;;;5088388;28;20438;-79
2021/04/09 11:23:02;;;;;;;30.13;5.40;;;18.90;99.90;;;;;;5082286;28;20944;-79
2021/04/09 11:25:34;;;;;;;22.93;4.97;;;18.80;99.90;;;;;;5082897;28;20920;-79
2021/04/09 11:28:01;;;;;;;27.40;5.57;;;18.80;99.90;;;;;;5086140;28;20372;-79
2021/04/09 11:30:34;;;;;;;28.63;5.50;;;18.80;99.90;;;;;;5090366;28;20400;-79
2021/04/09 11:33:02;;;;;;;27.67;5.18;;;18.70;99.90;;;;;;5090314;28;20376;-80
2021/04/09 11:35:37;;;;;;;26.42;4.97;;;18.70;99.90;;;;;;5083355;28;20394;-80
2021/04/09 11:38:12;;;;;;;24.23;5.30;;;18.60;99.90;;;;;;5082348;28;20779;-80
2021/04/09 11:40:41;;;;;;;28.55;5.95;;;18.60;99.90;;;;;;5071450;28;20400;-80
2021/04/09 11:43:12;;;;;;;27.98;5.43;;;18.60;99.90;;;;;;5071069;28;20390;-80
2021/04/09 11:45:50;;;;;;;30.60;6.13;;;18.60;99.90;;;;;;5088588;28;20396;-80
2021/04/09 11:48:36;;;;;;;35.13;5.80;;;18.60;99.90;;;;;;5090219;28;20384;-79
2021/04/09 11:51:22;;;;;;;28.58;5.63;;;18.50;99.90;;;;;;5090913;28;20491;-79
2021/04/09 11:54:21;;;;;;;25.67;4.95;;;18.60;99.90;;;;;;5091468;28;20381;-80
2021/04/09 11:56:49;;;;;;;32.58;5.75;;;18.60;99.90;;;;;;5083862;28;20413;-80
2021/04/09 11:59:21;;;;;;;33.25;5.72;;;18.60;99.90;;;;;;5086760;28;20908;-79
2021/04/09 12:01:52;;;;;;;23.73;5.25;;;18.60;99.90;;;;;;5079247;28;20897;-80
2021/04/09 12:04:39;;;;;;;30.92;5.20;;;18.60;99.90;;;;;;5076783;28;20799;-79
2021/04/09 12:07:13;;;;;;;24.88;5.13;;;18.60;99.90;;;;;;5088335;28;20483;-80
2021/04/09 12:09:41;;;;;;;25.38;5.35;;;18.60;99.90;;;;;;5089384;28;20396;-80
2021/04/09 12:12:12;;;;;;;25.92;5.60;;;18.60;99.90;;;;;;5085262;28;20481;-79
2021/04/09 12:14:42;;;;;;;26.98;5.30;;;18.70;99.90;;;;;;5072430;28;20937;-80
2021/04/09 12:17:11;;;;;;;26.02;5.65;;;18.70;99.90;;;;;;5088307;28;20453;-79
2021/04/09 12:19:39;;;;;;;28.70;5.43;;;18.70;99.90;;;;;;5086936;28;20514;-80
2021/04/09 12:22:07;;;;;;;29.33;5.47;;;18.80;99.90;;;;;;5085034;28;20423;-80
2021/04/09 12:24:35;;;;;;;29.27;6.03;;;18.80;99.90;;;;;;5084110;28;20760;-80
2021/04/09 12:27:03;;;;;;;28.75;5.35;;;18.80;99.90;;;;;;5082906;28;20755;-79
2021/04/09 12:29:31;;;;;;;24.60;5.80;;;18.80;99.90;;;;;;5083298;28;20454;-79
2021/04/09 12:31:58;;;;;;;29.48;5.50;;;18.90;99.90;;;;;;5084484;28;20462;-79
2021/04/09 12:34:25;;;;;;;25.85;5.63;;;18.90;99.90;;;;;;5084077;28;20388;-79
2021/04/09 12:36:52;;;;;;;25.67;5.50;;;18.90;99.90;;;;;;5082744;28;20411;-79
2021/04/09 12:39:21;;;;;;;20.08;4.65;;;18.90;99.90;;;;;;5082234;28;20389;-80
2021/04/09 12:41:48;;;;;;;20.30;4.90;;;18.90;99.90;;;;;;5082981;28;20415;-80
2021/04/09 12:44:16;;;;;;;20.05;4.60;;;18.90;99.90;;;;;;5083881;28;20383;-79
2021/04/09 12:46:44;;;;;;;29.17;5.70;;;18.90;99.90;;;;;;5083375;28;20887;-80
2021/04/09 12:49:12;;;;;;;23.25;5.35;;;18.90;99.90;;;;;;5081485;28;20891;-80
2021/04/09 12:51:39;;;;;;;25.10;5.05;;;18.90;99.90;;;;;;5083061;28;20786;-80
2021/04/09 12:54:06;;;;;;;27.10;5.53;;;18.90;99.90;;;;;;5083086;28;20906;-80
2021/04/09 12:56:34;;;;;;;26.25;5.07;;;18.80;99.90;;;;;;5082601;28;20415;-79
2021/04/09 12:59:01;;;;;;;24.15;4.97;;;18.80;99.90;;;;;;5083990;28;20392;-79